createdAt,value
2022-09-28T00:01:32.615Z,5.25
2022-09-28T00:03:59.771Z,4.22
2022-09-28T00:06:29.192Z,3.97
2022-09-28T00:08:56.474Z,3.67
2022-09-28T00:11:25.393Z,4.23
2022-09-28T00:13:56.576Z,4.68
2022-09-28T00:16:26.858Z,4.05
2022-09-28T00:18:54.132Z,2.85
2022-09-28T00:21:25.325Z,4.30
2022-09-28T00:24:11.992Z,4.67
2022-09-28T00:26:41.068Z,3.92
2022-09-28T00:29:13.192Z,4.15
2022-09-28T00:31:39.700Z,5.32
2022-09-28T00:34:06.217Z,4.32
2022-09-28T00:36:33.566Z,5.67
2022-09-28T00:39:06.402Z,4.40
2022-09-28T00:41:34.255Z,5.90
2022-09-28T00:44:22.430Z,3.42
2022-09-28T00:46:53.605Z,3.50
2022-09-28T00:49:33.184Z,3.40
2022-09-28T00:52:00.322Z,3.42
2022-09-28T00:54:27.134Z,3.17
2022-09-28T00:56:53.627Z,2.35
2022-09-28T00:59:20.167Z,4.68
2022-09-28T01:01:46.847Z,2.63
2022-09-28T01:04:13.702Z,3.60
2022-09-28T01:06:40.256Z,2.53
2022-09-28T01:09:11.999Z,3.60
2022-09-28T01:11:39.355Z,3.67
2022-09-28T01:14:10.424Z,2.33
2022-09-28T01:16:44.877Z,2.72
2022-09-28T01:19:36.746Z,3.03
2022-09-28T01:22:25.056Z,2.45
2022-09-28T01:25:13.414Z,3.40
2022-09-28T01:27:44.760Z,3.43
2022-09-28T01:30:15.917Z,4.50
2022-09-28T01:32:58.569Z,3.10
2022-09-28T01:35:36.825Z,4.80
2022-09-28T01:38:12.924Z,4.70
2022-09-28T01:40:40.778Z,2.27
2022-09-28T01:43:14.315Z,2.50
2022-09-28T01:45:46.664Z,2.17
2022-09-28T01:48:19.532Z,2.38
2022-09-28T01:50:51.087Z,2.60
2022-09-28T01:53:27.379Z,2.10
2022-09-28T01:55:59.225Z,2.40
2022-09-28T01:58:46.658Z,2.90
2022-09-28T02:01:20.960Z,3.25
2022-09-28T02:03:54.923Z,2.10
2022-09-28T02:06:31.895Z,3.13
2022-09-28T02:09:05.783Z,2.58
2022-09-28T02:11:37.224Z,2.63
2022-09-28T02:14:06.814Z,2.08
2022-09-28T02:16:42.291Z,3.38
2022-09-28T02:19:13.323Z,3.40
2022-09-28T02:21:52.231Z,1.80
2022-09-28T02:24:24.235Z,2.60
2022-09-28T02:26:53.904Z,3.00
2022-09-28T02:29:20.407Z,1.83
2022-09-28T02:31:47.116Z,3.97
2022-09-28T02:34:13.629Z,4.95
2022-09-28T02:36:40.412Z,4.15
2022-09-28T02:39:14.138Z,2.95
2022-09-28T02:41:55.934Z,4.95
2022-09-28T02:44:28.457Z,2.87
2022-09-28T02:47:02.591Z,3.53
2022-09-28T02:49:45.725Z,2.63
2022-09-28T02:52:27.406Z,3.70
2022-09-28T02:54:57.003Z,4.53
2022-09-28T02:57:39.841Z,6.03
2022-09-28T03:00:12.028Z,3.80
2022-09-28T03:02:45.190Z,5.03
2022-09-28T03:05:20.786Z,3.08
2022-09-28T03:07:57.210Z,5.32
2022-09-28T03:10:43.756Z,3.20
2022-09-28T03:13:12.340Z,2.63
2022-09-28T03:15:39.053Z,3.22
2022-09-28T03:18:06.473Z,2.75
2022-09-28T03:20:34.040Z,2.95
2022-09-28T03:23:23.267Z,3.10
2022-09-28T03:25:47.691Z,3.53
2022-09-28T03:28:14.167Z,2.95
2022-09-28T03:30:42.628Z,2.72
2022-09-28T03:33:09.244Z,3.15
2022-09-28T03:35:35.816Z,2.83
2022-09-28T03:38:02.397Z,3.17
2022-09-28T03:40:28.893Z,2.92
2022-09-28T03:42:55.431Z,2.75
2022-09-28T03:45:21.893Z,3.42
2022-09-28T03:47:48.850Z,3.27
2022-09-28T03:50:16.141Z,2.13
2022-09-28T03:52:42.805Z,3.60
2022-09-28T03:55:10.141Z,2.83
2022-09-28T03:57:37.128Z,3.58
2022-09-28T04:00:05.518Z,2.67
2022-09-28T04:02:32.294Z,2.55
2022-09-28T04:04:58.902Z,2.08
2022-09-28T04:07:29.027Z,1.88
2022-09-28T04:09:57.549Z,3.97
2022-09-28T04:12:24.058Z,3.57
2022-09-28T04:14:50.936Z,1.83
2022-09-28T04:17:17.475Z,1.77
2022-09-28T04:19:43.964Z,2.70
2022-09-28T04:22:11.540Z,1.77
2022-09-28T04:24:38.030Z,1.93
2022-09-28T04:27:23.157Z,2.20
2022-09-28T04:29:49.686Z,1.42
2022-09-28T04:32:16.259Z,1.58
2022-09-28T04:34:44.259Z,5.20
2022-09-28T04:37:11.120Z,1.17
2022-09-28T04:39:37.649Z,1.55
2022-09-28T04:42:04.203Z,2.08
2022-09-28T04:44:30.794Z,0.68
2022-09-28T04:46:59.665Z,1.10
2022-09-28T04:49:28.238Z,3.30
2022-09-28T04:51:54.781Z,1.60
2022-09-28T04:54:21.282Z,3.33
2022-09-28T04:56:47.774Z,2.03
2022-09-28T04:59:14.517Z,1.25
2022-09-28T05:01:41.294Z,1.67
2022-09-28T05:04:07.803Z,2.05
2022-09-28T05:06:34.361Z,1.35
2022-09-28T05:09:00.862Z,4.03
2022-09-28T05:11:27.391Z,0.40
2022-09-28T05:13:54.023Z,1.20
2022-09-28T05:16:20.679Z,1.45
2022-09-28T05:18:47.426Z,0.90
2022-09-28T05:21:15.389Z,1.73
2022-09-28T05:23:46.795Z,0.75
2022-09-28T05:26:13.985Z,3.43
2022-09-28T05:28:40.534Z,0.77
2022-09-28T05:31:07.125Z,0.82
2022-09-28T05:33:34.070Z,0.60
2022-09-28T05:36:02.104Z,0.70
2022-09-28T05:38:30.057Z,0.50
2022-09-28T05:40:57.299Z,0.95
2022-09-28T05:43:23.959Z,1.58
2022-09-28T05:45:55.332Z,1.08
2022-09-28T05:48:22.984Z,1.83
2022-09-28T05:50:52.347Z,1.00
2022-09-28T05:53:18.949Z,0.50
2022-09-28T05:55:45.586Z,1.15
2022-09-28T05:58:12.127Z,2.35
2022-09-28T06:00:38.765Z,1.80
2022-09-28T06:03:09.270Z,1.00
2022-09-28T06:05:36.470Z,1.15
2022-09-28T06:08:05.279Z,1.10
2022-09-28T06:10:32.576Z,2.00
2022-09-28T06:12:59.314Z,0.80
2022-09-28T06:15:28.856Z,1.77
2022-09-28T06:17:57.403Z,1.73
2022-09-28T06:20:24.743Z,0.85
2022-09-28T06:22:53.047Z,1.33
2022-09-28T06:25:19.778Z,0.95
2022-09-28T06:28:00.726Z,1.23
2022-09-28T06:30:30.683Z,0.82
2022-09-28T06:32:59.178Z,2.53
2022-09-28T06:35:27.566Z,1.98
2022-09-28T06:37:54.261Z,0.77
2022-09-28T06:40:22.620Z,1.33
2022-09-28T06:42:59.503Z,0.70
2022-09-28T06:45:28.015Z,0.77
2022-09-28T06:47:58.251Z,1.52
2022-09-28T06:50:26.196Z,1.10
2022-09-28T06:52:54.545Z,1.07
2022-09-28T06:55:22.221Z,1.67
2022-09-28T06:58:03.223Z,2.17
2022-09-28T07:00:34.101Z,2.33
2022-09-28T07:03:02.366Z,1.10
2022-09-28T07:05:29.955Z,0.93
2022-09-28T07:07:57.439Z,1.23
2022-09-28T07:10:27.846Z,1.65
2022-09-28T07:12:55.861Z,2.45
2022-09-28T07:15:25.610Z,1.42
2022-09-28T07:18:02.561Z,2.10
2022-09-28T07:20:31.988Z,0.95
2022-09-28T07:23:14.733Z,2.08
2022-09-28T07:25:47.696Z,1.17
2022-09-28T07:28:15.868Z,0.70
2022-09-28T07:30:44.278Z,1.17
2022-09-28T07:33:12.878Z,1.20
2022-09-28T07:35:39.478Z,0.68
2022-09-28T07:38:07.474Z,1.27
2022-09-28T07:40:54.089Z,0.90
2022-09-28T07:43:21.807Z,1.70
2022-09-28T07:45:52.626Z,0.75
2022-09-28T07:48:19.900Z,1.27
2022-09-28T07:50:50.238Z,3.35
2022-09-28T07:53:16.700Z,1.48
2022-09-28T07:55:43.262Z,2.57
2022-09-28T07:58:09.814Z,1.55
2022-09-28T08:00:36.298Z,1.65
2022-09-28T08:03:03.556Z,1.35
2022-09-28T08:05:32.146Z,1.60
2022-09-28T08:07:59.697Z,2.40
2022-09-28T08:10:26.746Z,1.35
2022-09-28T08:12:59.157Z,2.78
2022-09-28T08:15:29.611Z,2.47
2022-09-28T08:17:59.141Z,1.98
2022-09-28T08:20:51.330Z,1.93
2022-09-28T08:23:18.553Z,3.28
2022-09-28T08:25:54.139Z,1.83
2022-09-28T08:28:22.600Z,1.08
2022-09-28T08:30:50.238Z,3.20
2022-09-28T08:33:18.664Z,6.77
2022-09-28T08:35:46.857Z,4.63
2022-09-28T08:38:13.951Z,13.82
2022-09-28T08:40:47.289Z,14.10
2022-09-28T08:43:28.123Z,2.90
2022-09-28T08:45:57.938Z,3.60
2022-09-28T08:49:13.317Z,2.70
2022-09-28T08:51:49.511Z,2.38
2022-09-28T08:54:28.316Z,4.45
2022-09-28T08:57:00.984Z,0.98
2022-09-28T08:59:40.323Z,1.70
2022-09-28T09:02:17.262Z,2.03
2022-09-28T09:04:44.100Z,3.20
2022-09-28T09:07:21.457Z,1.27
2022-09-28T09:10:02.701Z,1.48
2022-09-28T09:13:00.726Z,1.70
2022-09-28T09:15:38.676Z,1.50
2022-09-28T09:18:24.447Z,1.00
2022-09-28T09:20:56.914Z,1.83
2022-09-28T09:23:39.247Z,1.67
2022-09-28T09:26:21.290Z,1.40
2022-09-28T09:29:08.846Z,1.92
2022-09-28T09:31:50.413Z,1.65
2022-09-28T09:34:33.629Z,0.88
2022-09-28T09:37:17.861Z,3.05
2022-09-28T09:39:51.350Z,1.13
2022-09-28T09:42:37.870Z,0.35
2022-09-28T09:45:45.325Z,1.73
2022-09-28T09:48:28.664Z,0.57
2022-09-28T09:51:11.926Z,0.40
2022-09-28T09:54:00.478Z,1.50
2022-09-28T09:57:02.416Z,0.65
2022-09-28T10:03:07.453Z,0.43
2022-09-28T10:05:36.042Z,0.52
2022-09-28T10:08:12.974Z,0.10
2022-09-28T10:10:52.001Z,0.93
2022-09-28T10:13:18.709Z,0.28
2022-09-28T10:15:47.677Z,1.05
2022-09-28T10:18:19.160Z,0.45
2022-09-28T10:20:46.081Z,0.73
2022-09-28T10:23:23.175Z,1.65
2022-09-28T10:25:52.579Z,0.85
2022-09-28T10:28:25.714Z,0.30
2022-09-28T10:30:53.093Z,0.52
2022-09-28T10:33:33.601Z,0.50
2022-09-28T10:36:02.349Z,1.17
2022-09-28T10:38:30.904Z,1.35
2022-09-28T10:41:00.161Z,0.30
2022-09-28T10:43:33.631Z,0.45
2022-09-28T10:46:06.565Z,1.27
2022-09-28T10:48:50.848Z,1.88
2022-09-28T10:51:18.071Z,1.42
2022-09-28T10:54:03.031Z,1.00
2022-09-28T10:56:36.205Z,0.40
2022-09-28T10:59:23.028Z,0.10
2022-09-28T11:01:55.870Z,0.13
2022-09-28T11:04:26.499Z,0.57
2022-09-28T11:09:33.651Z,1.25
2022-09-28T11:12:04.801Z,0.63
2022-09-28T11:14:42.112Z,0.20
2022-09-28T11:17:19.122Z,0.30
2022-09-28T11:19:45.995Z,0.77
2022-09-28T11:22:23.406Z,0.25
2022-09-28T11:24:50.570Z,0.70
2022-09-28T11:27:25.521Z,0.30
2022-09-28T11:29:57.810Z,2.00
2022-09-28T11:32:28.570Z,1.55
2022-09-28T11:35:00.104Z,0.70
2022-09-28T11:38:03.498Z,0.60
2022-09-28T11:40:40.467Z,0.28
2022-09-28T11:43:15.956Z,0.30
2022-09-28T11:46:09.710Z,1.42
2022-09-28T11:48:45.985Z,0.57
2022-09-28T11:51:21.790Z,1.03
2022-09-28T11:53:55.028Z,2.53
2022-09-28T11:56:40.040Z,0.70
2022-09-28T11:59:14.630Z,0.45
2022-09-28T12:01:51.474Z,0.70
2022-09-28T12:04:25.016Z,0.30
2022-09-28T12:07:15.179Z,0.60
2022-09-28T12:09:50.746Z,0.32
2022-09-28T12:12:36.045Z,1.63
2022-09-28T12:15:23.976Z,0.35
2022-09-28T12:17:55.529Z,0.50
2022-09-28T12:20:29.169Z,0.73
2022-09-28T12:23:05.643Z,3.63
2022-09-28T12:25:40.894Z,0.60
2022-09-28T12:28:24.196Z,0.20
2022-09-28T12:30:52.686Z,1.50
2022-09-28T12:33:19.431Z,0.95
2022-09-28T12:36:02.023Z,3.53
2022-09-28T12:39:08.762Z,4.78
2022-09-28T12:42:12.022Z,2.17
2022-09-28T12:44:59.442Z,1.63
2022-09-28T12:47:54.517Z,1.38
2022-09-28T12:50:57.068Z,2.05
2022-09-28T12:53:45.046Z,1.75
2022-09-28T12:56:21.830Z,3.40
2022-09-28T12:58:59.975Z,1.13
2022-09-28T13:01:41.265Z,1.52
2022-09-28T13:04:27.802Z,1.52
2022-09-28T13:07:05.123Z,2.00
2022-09-28T13:09:52.734Z,2.17
2022-09-28T13:12:24.452Z,1.47
2022-09-28T13:15:06.460Z,2.15
2022-09-28T13:17:39.031Z,2.45
2022-09-28T13:20:32.222Z,1.38
2022-09-28T13:23:17.374Z,3.22
2022-09-28T13:25:50.795Z,0.80
2022-09-28T13:28:26.275Z,2.17
2022-09-28T13:30:56.204Z,1.33
2022-09-28T13:33:31.508Z,0.77
2022-09-28T13:35:58.036Z,1.83
2022-09-28T13:38:25.413Z,2.17
2022-09-28T13:41:04.205Z,0.90
2022-09-28T13:43:41.333Z,0.80
2022-09-28T13:46:23.834Z,0.80
2022-09-28T13:49:11.232Z,0.40
2022-09-28T13:51:49.193Z,0.33
2022-09-28T13:54:26.003Z,0.68
2022-09-28T13:56:52.463Z,0.60
2022-09-28T13:59:31.983Z,0.95
2022-09-28T14:02:09.677Z,0.25
2022-09-28T14:04:59.145Z,1.60
2022-09-28T14:08:18.381Z,1.17
2022-09-28T14:10:52.189Z,0.10
2022-09-28T14:13:41.460Z,1.45
2022-09-28T14:16:20.961Z,0.73
2022-09-28T14:18:56.006Z,0.40
2022-09-28T14:21:54.426Z,0.40
2022-09-28T14:24:28.385Z,0.70
2022-09-28T14:27:17.080Z,0.30
2022-09-28T14:29:43.786Z,0.60
2022-09-28T14:32:10.177Z,1.07
2022-09-28T14:34:42.621Z,0.88
2022-09-28T14:37:46.693Z,0.90
2022-09-28T14:40:49.579Z,2.30
2022-09-28T14:43:35.722Z,0.47
2022-09-28T14:46:30.840Z,1.33
2022-09-28T14:49:02.917Z,0.85
2022-09-28T14:51:30.395Z,1.10
2022-09-28T14:54:02.279Z,0.70
2022-09-28T14:56:34.333Z,0.60
2022-09-28T14:59:01.362Z,0.50
2022-09-28T15:01:28.045Z,1.45
2022-09-28T15:03:57.947Z,1.25
2022-09-28T15:06:25.507Z,0.73
2022-09-28T15:08:52.074Z,1.67
2022-09-28T15:11:23.674Z,1.53
2022-09-28T15:14:00.123Z,1.30
2022-09-28T15:16:30.428Z,0.88
2022-09-28T15:19:03.943Z,0.60
2022-09-28T15:21:35.738Z,0.65
2022-09-28T15:24:02.347Z,3.10
2022-09-28T15:26:35.115Z,0.60
2022-09-28T15:29:03.445Z,2.10
2022-09-28T15:31:34.994Z,0.70
2022-09-28T15:34:21.165Z,1.42
2022-09-28T15:36:47.869Z,1.63
2022-09-28T15:39:18.132Z,1.13
2022-09-28T15:41:46.628Z,1.40
2022-09-28T15:44:13.051Z,0.80
2022-09-28T15:46:43.566Z,1.70
2022-09-28T15:49:24.546Z,1.13
2022-09-28T15:51:55.379Z,0.88
2022-09-28T15:54:32.689Z,1.08
2022-09-28T15:57:02.500Z,2.22
2022-09-28T15:59:32.045Z,1.20
2022-09-28T16:02:10.302Z,1.20
2022-09-28T16:04:37.592Z,1.08
2022-09-28T16:07:12.276Z,1.45
2022-09-28T16:09:58.518Z,1.55
2022-09-28T16:12:32.523Z,1.63
2022-09-28T16:15:06.145Z,0.90
2022-09-28T16:17:35.200Z,0.65
2022-09-28T16:20:16.967Z,0.50
2022-09-28T16:22:43.600Z,0.85
2022-09-28T16:25:18.915Z,1.42
2022-09-28T16:27:46.037Z,0.63
2022-09-28T16:30:25.406Z,0.57
2022-09-28T16:32:56.736Z,0.85
2022-09-28T16:35:30.997Z,0.22
2022-09-28T16:38:10.244Z,0.43
2022-09-28T16:40:42.547Z,0.70
2022-09-28T16:43:26.785Z,0.40
2022-09-28T16:45:57.911Z,0.40
2022-09-28T16:48:29.634Z,0.70
2022-09-28T16:50:57.205Z,1.75
2022-09-28T16:53:42.374Z,0.80
2022-09-28T16:56:09.643Z,0.47
2022-09-28T16:58:36.572Z,2.03
2022-09-28T17:01:03.547Z,1.20
2022-09-28T17:03:30.231Z,0.25
2022-09-28T17:05:59.221Z,1.13
2022-09-28T17:08:25.881Z,0.95
2022-09-28T17:13:45.123Z,2.42
2022-09-28T17:16:14.637Z,0.80
2022-09-28T17:18:41.862Z,0.60
2022-09-28T17:21:19.691Z,1.02
2022-09-28T17:23:48.852Z,0.95
2022-09-28T17:26:27.309Z,1.17
2022-09-28T17:28:54.083Z,0.63
2022-09-28T17:31:20.626Z,0.30
2022-09-28T17:33:47.205Z,0.73
2022-09-28T17:36:17.614Z,2.28
2022-09-28T17:38:45.468Z,0.40
2022-09-28T17:41:18.061Z,0.60
2022-09-28T17:43:47.232Z,0.57
2022-09-28T17:46:27.449Z,0.70
2022-09-28T17:48:55.496Z,0.40
2022-09-28T17:51:23.965Z,0.70
2022-09-28T17:53:51.077Z,0.50
2022-09-28T17:56:18.660Z,1.80
2022-09-28T17:58:45.165Z,0.80
2022-09-28T18:01:11.841Z,1.52
2022-09-28T18:03:38.670Z,0.68
2022-09-28T18:06:07.638Z,1.67
2022-09-28T18:08:34.621Z,1.03
2022-09-28T18:11:01.978Z,3.35
2022-09-28T18:13:28.671Z,0.57
2022-09-28T18:15:56.079Z,0.68
2022-09-28T18:18:24.890Z,1.02
2022-09-28T18:20:52.004Z,1.77
2022-09-28T18:23:18.947Z,0.80
2022-09-28T18:25:46.377Z,0.93
2022-09-28T18:28:13.785Z,0.75
2022-09-28T18:30:42.812Z,1.48
2022-09-28T18:33:11.148Z,0.80
2022-09-28T18:35:39.392Z,0.98
2022-09-28T18:38:06.842Z,1.83
2022-09-28T18:40:35.547Z,2.08
2022-09-28T18:43:04.459Z,1.13
2022-09-28T18:45:31.615Z,1.67
2022-09-28T18:47:59.736Z,2.58
2022-09-28T18:50:27.718Z,1.23
2022-09-28T18:52:54.796Z,1.10
2022-09-28T18:55:21.785Z,1.38
2022-09-28T18:57:48.806Z,2.23
2022-09-28T19:00:15.700Z,2.13
2022-09-28T19:02:43.053Z,2.42
2022-09-28T19:05:10.004Z,6.38
2022-09-28T19:07:36.978Z,2.55
2022-09-28T19:10:04.188Z,1.90
2022-09-28T19:12:32.372Z,2.03
2022-09-28T19:14:59.767Z,1.98
2022-09-28T19:17:26.335Z,1.50
2022-09-28T19:19:53.000Z,1.83
2022-09-28T19:22:19.624Z,1.70
2022-09-28T19:24:46.159Z,2.60
2022-09-28T19:27:12.729Z,2.97
2022-09-28T19:29:39.229Z,2.92
2022-09-28T19:32:05.726Z,1.67
2022-09-28T19:34:32.402Z,2.60
2022-09-28T19:37:01.105Z,2.58
2022-09-28T19:39:27.726Z,2.53
2022-09-28T19:41:57.187Z,2.22
2022-09-28T19:44:26.444Z,1.63
2022-09-28T19:46:57.478Z,2.70
2022-09-28T19:49:27.599Z,2.30
2022-09-28T19:52:12.045Z,1.42
2022-09-28T19:54:39.687Z,2.28
2022-09-28T19:57:08.896Z,3.80
2022-09-28T19:59:37.184Z,3.47
2022-09-28T20:02:07.024Z,4.22
2022-09-28T20:04:33.700Z,3.67
2022-09-28T20:07:00.277Z,6.53
2022-09-28T20:09:26.880Z,9.40
2022-09-28T20:11:53.439Z,5.67
2022-09-28T20:14:21.477Z,4.00
2022-09-28T20:16:50.238Z,4.03
2022-09-28T20:19:20.224Z,4.05
2022-09-28T20:21:48.230Z,5.95
2022-09-28T20:24:17.908Z,4.50
2022-09-28T20:26:45.821Z,3.45
2022-09-28T20:29:12.976Z,3.15
2022-09-28T20:31:40.406Z,4.15
2022-09-28T20:34:07.204Z,5.03
2022-09-28T20:36:34.233Z,4.27
2022-09-28T20:39:02.408Z,4.05
2022-09-28T20:41:35.739Z,6.70
2022-09-28T20:44:05.780Z,3.45
2022-09-28T20:46:33.661Z,4.05
2022-09-28T20:49:00.649Z,3.80
2022-09-28T20:51:27.347Z,4.45
2022-09-28T20:53:55.739Z,4.38
2022-09-28T20:57:18.096Z,4.88
2022-09-28T20:59:45.090Z,3.95
2022-09-28T21:02:13.177Z,5.87
2022-09-28T21:04:41.392Z,3.53
2022-09-28T21:07:08.624Z,3.83
2022-09-28T21:09:35.810Z,5.38
2022-09-28T21:12:02.653Z,4.00
2022-09-28T21:14:29.476Z,6.10
2022-09-28T21:16:56.307Z,6.38
2022-09-28T21:19:24.108Z,3.85
2022-09-28T21:21:51.350Z,4.90
2022-09-28T21:24:20.300Z,3.58
2022-09-28T21:26:46.908Z,3.37
2022-09-28T21:29:14.949Z,5.32
2022-09-28T21:31:45.758Z,7.70
2022-09-28T21:34:19.421Z,8.25
2022-09-28T21:36:48.451Z,3.65
2022-09-28T21:39:15.027Z,7.97
2022-09-28T21:41:41.670Z,6.28
2022-09-28T21:44:08.661Z,4.38
2022-09-28T21:46:36.563Z,3.58
2022-09-28T21:49:05.366Z,2.20
2022-09-28T21:51:34.205Z,5.40
2022-09-28T21:54:00.696Z,4.25
2022-09-28T21:56:27.337Z,3.55
2022-09-28T21:58:53.832Z,2.30
2022-09-28T22:01:23.084Z,3.17
2022-09-28T22:03:54.067Z,3.13
2022-09-28T22:06:24.101Z,3.85
2022-09-28T22:08:51.070Z,3.35
2022-09-28T22:11:20.526Z,3.13
2022-09-28T22:13:49.649Z,4.28
2022-09-28T22:16:19.275Z,2.70
2022-09-28T22:18:46.432Z,3.65
2022-09-28T22:21:18.489Z,4.75
2022-09-28T22:23:45.548Z,4.13
2022-09-28T22:26:14.590Z,2.15
2022-09-28T22:28:46.883Z,5.53
2022-09-28T22:31:14.370Z,6.55
2022-09-28T22:33:40.874Z,5.80
2022-09-28T22:36:07.979Z,3.92
2022-09-28T22:38:35.255Z,4.57
2022-09-28T22:41:03.880Z,4.10
2022-09-28T22:43:31.274Z,4.38
2022-09-28T22:46:05.888Z,4.10
2022-09-28T22:48:33.242Z,3.47
2022-09-28T22:50:59.936Z,4.72
2022-09-28T22:53:26.747Z,3.97
2022-09-28T22:55:53.277Z,3.72
2022-09-28T22:58:19.942Z,3.42
2022-09-28T23:00:46.729Z,2.75
2022-09-28T23:03:13.300Z,3.45
2022-09-28T23:05:39.855Z,2.83
2022-09-28T23:08:06.386Z,5.53
2022-09-28T23:10:33.124Z,4.40
2022-09-28T23:12:59.690Z,4.57
2022-09-28T23:15:27.834Z,6.15
2022-09-28T23:17:55.059Z,3.37
2022-09-28T23:20:22.057Z,2.20
2022-09-28T23:22:49.070Z,2.22
2022-09-28T23:25:17.188Z,2.40
2022-09-28T23:27:46.653Z,3.53
2022-09-28T23:30:15.424Z,3.13
2022-09-28T23:32:42.157Z,3.08
2022-09-28T23:35:09.095Z,2.45
2022-09-28T23:37:35.837Z,2.28
2022-09-28T23:40:03.774Z,2.17
2022-09-28T23:42:30.525Z,2.37
2022-09-28T23:44:57.023Z,2.92
2022-09-28T23:47:23.546Z,2.28
2022-09-28T23:49:50.040Z,2.70
2022-09-28T23:52:16.601Z,3.67
2022-09-28T23:54:43.136Z,3.07
2022-09-28T23:57:09.682Z,3.22
2022-09-28T23:59:36.215Z,2.75
